Time,TemperatureF,DewpointF,PressureIn,WindDirection,WindDirectionDegrees,WindSpeedMPH,WindSpeedGustMPH,Humidity,HourlyPrecipIn,Conditions,Clouds,dailyrainin,SoftwareType,DateUTC
2013-05-24 00:00:00,49.4,44.5,30.03,NW,317,3.0,3.0,83,0.00,,,0.01,Wunderground v.1.13,2013-05-24 04:00:00,
2013-05-24 00:05:00,49.4,44.5,30.04,West,279,2.0,4.0,83,0.00,,,0.00,Wunderground v.1.13,2013-05-24 04:05:00,
2013-05-24 00:15:00,49.3,44.0,30.04,NW,314,2.0,2.0,82,0.00,,,0.00,Wunderground v.1.13,2013-05-24 04:15:00,
2013-05-24 00:20:00,49.3,44.0,30.04,NNE,28,2.0,5.0,82,0.00,,,0.00,Wunderground v.1.13,2013-05-24 04:20:00,
2013-05-24 00:25:00,49.2,43.9,30.05,NW,308,2.0,2.0,82,0.00,,,0.00,Wunderground v.1.13,2013-05-24 04:25:00,
2013-05-24 00:35:00,49.1,44.2,30.05,North,360,2.0,2.0,83,0.00,,,0.00,Wunderground v.1.13,2013-05-24 04:35:00,
2013-05-24 00:45:00,48.9,44.0,30.05,North,350,2.0,2.0,83,0.00,,,0.00,Wunderground v.1.13,2013-05-24 04:45:00,
2013-05-24 00:50:00,48.8,44.2,30.06,NNW,329,2.0,4.0,84,0.00,,,0.00,Wunderground v.1.13,2013-05-24 04:50:00,
2013-05-24 00:55:00,48.7,44.1,30.06,WNW,294,2.0,2.0,84,0.00,,,0.00,Wunderground v.1.13,2013-05-24 04:55:00,
2013-05-24 01:00:00,48.5,43.9,30.06,NNW,342,2.0,8.0,84,0.00,,,0.00,Wunderground v.1.13,2013-05-24 05:00:00,
2013-05-24 01:10:00,48.5,43.9,30.07,NNE,12,1.0,1.0,84,0.00,,,0.00,Wunderground v.1.13,2013-05-24 05:10:00,
2013-05-24 01:20:00,48.2,43.3,30.07,WNW,287,2.0,3.0,83,0.00,,,0.00,Wunderground v.1.13,2013-05-24 05:20:00,
2013-05-24 01:25:00,48.0,43.4,30.07,NW,323,3.0,3.0,84,0.00,,,0.00,Wunderground v.1.13,2013-05-24 05:25:00,
2013-05-24 01:35:00,47.7,43.1,30.07,North,355,1.0,2.0,84,0.00,,,0.00,Wunderground v.1.13,2013-05-24 05:35:00,
2013-05-24 01:45:00,47.5,42.9,30.07,NW,318,2.0,2.0,84,0.00,,,0.00,Wunderground v.1.13,2013-05-24 05:45:00,
2013-05-24 01:50:00,47.3,42.7,30.08,NNW,327,2.0,3.0,84,0.00,,,0.00,Wunderground v.1.13,2013-05-24 05:50:00,
2013-05-24 01:55:00,47.1,42.5,30.07,SSW,213,3.0,5.0,84,0.00,,,0.00,Wunderground v.1.13,2013-05-24 05:55:00,
2013-05-24 02:05:00,47.0,42.7,30.08,NNW,335,2.0,2.0,85,0.00,,,0.00,Wunderground v.1.13,2013-05-24 06:05:00,
2013-05-24 02:15:00,47.0,42.7,30.08,West,276,1.0,4.0,85,0.00,,,0.00,Wunderground v.1.13,2013-05-24 06:15:00,
2013-05-24 02:20:00,47.0,42.7,30.08,NNW,328,2.0,4.0,85,0.00,,,0.00,Wunderground v.1.13,2013-05-24 06:20:00,
2013-05-24 02:30:00,46.9,42.3,30.08,North,355,2.0,2.0,84,0.00,,,0.00,Wunderground v.1.13,2013-05-24 06:30:00,
2013-05-24 02:35:00,46.9,42.3,30.08,NNW,348,1.0,1.0,84,0.00,,,0.00,Wunderground v.1.13,2013-05-24 06:35:00,
2013-05-24 02:45:00,46.8,41.9,30.09,NW,322,2.0,2.0,83,0.00,,,0.00,Wunderground v.1.13,2013-05-24 06:45:00,
2013-05-24 02:55:00,46.7,41.8,30.09,NNW,331,2.0,2.0,83,0.00,,,0.00,Wunderground v.1.13,2013-05-24 06:55:00,
2013-05-24 03:05:00,46.6,41.1,30.09,West,268,3.0,3.0,81,0.00,,,0.00,Wunderground v.1.13,2013-05-24 07:05:00,
2013-05-24 03:10:00,46.6,41.1,30.09,WNW,302,4.0,4.0,81,0.00,,,0.00,Wunderground v.1.13,2013-05-24 07:10:00,
2013-05-24 03:20:00,46.6,40.8,30.09,ENE,76,2.0,2.0,80,0.00,,,0.00,Wunderground v.1.13,2013-05-24 07:20:00,
2013-05-24 03:30:00,46.5,40.0,30.10,North,360,3.0,3.0,78,0.00,,,0.00,Wunderground v.1.13,2013-05-24 07:30:00,
2013-05-24 03:35:00,46.5,40.3,30.10,WNW,292,3.0,3.0,79,0.00,,,0.00,Wunderground v.1.13,2013-05-24 07:35:00,
2013-05-24 03:45:00,46.4,40.6,30.11,NE,49,1.0,1.0,80,0.00,,,0.00,Wunderground v.1.13,2013-05-24 07:45:00,
2013-05-24 03:55:00,46.5,40.3,30.11,ENE,59,2.0,2.0,79,0.00,,,0.00,Wunderground v.1.13,2013-05-24 07:55:00,
2013-05-24 04:05:00,46.6,40.4,30.11,North,349,1.0,2.0,79,0.00,,,0.00,Wunderground v.1.13,2013-05-24 08:05:00,
2013-05-24 04:15:00,46.7,40.5,30.11,WNW,292,2.0,2.0,79,0.00,,,0.00,Wunderground v.1.13,2013-05-24 08:15:00,
2013-05-24 04:20:00,46.6,40.1,30.12,NW,307,2.0,2.0,78,0.00,,,0.00,Wunderground v.1.13,2013-05-24 08:20:00,
2013-05-24 04:30:00,46.6,40.4,30.12,ENE,72,1.0,2.0,79,0.00,,,0.00,Wunderground v.1.13,2013-05-24 08:30:00,
2013-05-24 04:40:00,46.3,39.5,30.13,NNE,13,3.0,3.0,77,0.00,,,0.00,Wunderground v.1.13,2013-05-24 08:40:00,
2013-05-24 04:50:00,46.1,39.3,30.13,WNW,292,1.0,8.0,77,0.00,,,0.00,Wunderground v.1.13,2013-05-24 08:50:00,
2013-05-24 05:00:00,45.6,38.8,30.13,WNW,293,2.0,2.0,77,0.00,,,0.00,Wunderground v.1.13,2013-05-24 09:00:00,
2013-05-24 05:05:00,45.4,38.6,30.14,NW,319,1.0,1.0,77,0.00,,,0.00,Wunderground v.1.13,2013-05-24 09:05:00,
2013-05-24 05:15:00,45.2,38.7,30.14,NNW,342,0.0,0.0,78,0.00,,,0.00,Wunderground v.1.13,2013-05-24 09:15:00,
2013-05-24 05:25:00,45.1,39.3,30.15,NNW,342,0.0,0.0,80,0.00,,,0.00,Wunderground v.1.13,2013-05-24 09:25:00,
2013-05-24 05:35:00,45.0,38.9,30.15,North,360,0.0,0.0,79,0.00,,,0.00,Wunderground v.1.13,2013-05-24 09:35:00,
2013-05-24 05:45:00,44.8,38.7,30.15,North,355,0.0,0.0,79,0.00,,,0.00,Wunderground v.1.13,2013-05-24 09:45:00,
2013-05-24 05:55:00,44.5,38.7,30.16,NNW,339,0.0,0.0,80,0.00,,,0.00,Wunderground v.1.13,2013-05-24 09:55:00,
2013-05-24 06:05:00,44.3,38.5,30.16,NNE,13,1.0,1.0,80,0.00,,,0.00,Wunderground v.1.13,2013-05-24 10:05:00,
2013-05-24 06:15:00,44.1,38.0,30.16,NNW,340,1.0,4.0,79,0.00,,,0.00,Wunderground v.1.13,2013-05-24 10:15:00,
2013-05-24 06:25:00,43.9,37.8,30.17,NW,325,2.0,7.0,79,0.00,,,0.00,Wunderground v.1.13,2013-05-24 10:25:00,
2013-05-24 06:30:00,43.8,37.4,30.17,West,268,2.0,6.0,78,0.00,,,0.00,Wunderground v.1.13,2013-05-24 10:30:00,
2013-05-24 06:35:00,43.8,37.4,30.18,NW,304,3.0,4.0,78,0.00,,,0.00,Wunderground v.1.13,2013-05-24 10:35:00,
2013-05-24 06:45:00,44.0,37.6,30.18,West,259,2.0,2.0,78,0.00,,,0.00,Wunderground v.1.13,2013-05-24 10:45:00,
2013-05-24 06:55:00,44.3,37.9,30.18,West,270,1.0,1.0,78,0.00,,,0.00,Wunderground v.1.13,2013-05-24 10:55:00,
2013-05-24 07:05:00,44.7,37.9,30.19,WNW,288,2.0,3.0,77,0.00,,,0.00,Wunderground v.1.13,2013-05-24 11:05:00,
2013-05-24 07:15:00,45.0,38.2,30.19,NE,39,2.0,2.0,77,0.00,,,0.00,Wunderground v.1.13,2013-05-24 11:15:00,
2013-05-24 07:20:00,45.1,38.0,30.19,WSW,255,2.0,2.0,76,0.00,,,0.00,Wunderground v.1.13,2013-05-24 11:20:00,
2013-05-24 07:30:00,45.3,37.8,30.20,NW,321,2.0,4.0,75,0.00,,,0.00,Wunderground v.1.13,2013-05-24 11:30:00,
2013-05-24 07:40:00,45.9,38.4,30.20,WNW,291,1.0,3.0,75,0.00,,,0.00,Wunderground v.1.13,2013-05-24 11:40:00,
2013-05-24 07:45:00,46.3,38.1,30.20,NNW,341,1.0,1.0,73,0.00,,,0.00,Wunderground v.1.13,2013-05-24 11:45:00,
2013-05-24 07:55:00,46.7,37.8,30.20,SW,232,2.0,2.0,71,0.00,,,0.00,Wunderground v.1.13,2013-05-24 11:55:00,
2013-05-24 08:05:00,47.4,38.5,30.21,WNW,288,2.0,2.0,71,0.00,,,0.00,Wunderground v.1.13,2013-05-24 12:05:00,
2013-05-24 08:10:00,47.9,39.3,30.21,NW,311,1.0,1.0,72,0.00,,,0.00,Wunderground v.1.13,2013-05-24 12:10:00,
2013-05-24 08:20:00,47.9,38.6,30.22,WNW,299,2.0,2.0,70,0.00,,,0.00,Wunderground v.1.13,2013-05-24 12:20:00,
2013-05-24 08:30:00,47.5,38.9,30.22,NNW,330,1.0,1.0,72,0.00,,,0.00,Wunderground v.1.13,2013-05-24 12:30:00,
2013-05-24 08:40:00,47.2,38.6,30.23,North,350,0.0,0.0,72,0.00,,,0.00,Wunderground v.1.13,2013-05-24 12:40:00,
2013-05-24 08:50:00,46.9,38.0,30.23,NNE,16,2.0,2.0,71,0.00,,,0.00,Wunderground v.1.13,2013-05-24 12:50:00,
2013-05-24 08:55:00,46.9,38.0,30.23,North,5,2.0,3.0,71,0.00,,,0.00,Wunderground v.1.13,2013-05-24 12:55:00,
2013-05-24 09:00:00,46.9,37.6,30.24,WNW,296,2.0,2.0,70,0.00,,,0.00,Wunderground v.1.13,2013-05-24 13:00:00,
2013-05-24 09:05:00,47.0,37.7,30.24,North,360,2.0,2.0,70,0.00,,,0.00,Wunderground v.1.13,2013-05-24 13:05:00,
2013-05-24 09:15:00,47.0,37.4,30.24,NE,38,2.0,2.0,69,0.00,,,0.00,Wunderground v.1.13,2013-05-24 13:15:00,
2013-05-24 09:25:00,47.2,38.3,30.24,NNE,15,1.0,1.0,71,0.00,,,0.00,Wunderground v.1.13,2013-05-24 13:25:00,
2013-05-24 09:35:00,47.2,37.9,30.25,NNW,341,1.0,1.0,70,0.00,,,0.00,Wunderground v.1.13,2013-05-24 13:35:00,
2013-05-24 09:40:00,47.3,38.4,30.25,NNE,16,1.0,1.0,71,0.00,,,0.00,Wunderground v.1.13,2013-05-24 13:40:00,
2013-05-24 09:45:00,47.4,38.8,30.26,NW,306,1.0,6.0,72,0.00,,,0.00,Wunderground v.1.13,2013-05-24 13:45:00,
2013-05-24 09:55:00,47.6,38.3,30.26,NW,315,2.0,2.0,70,0.00,,,0.00,Wunderground v.1.13,2013-05-24 13:55:00,
2013-05-24 10:05:00,47.7,38.8,30.26,North,5,1.0,1.0,71,0.00,,,0.00,Wunderground v.1.13,2013-05-24 14:05:00,
2013-05-24 10:15:00,47.6,37.6,30.27,NW,319,2.0,3.0,68,0.00,,,0.00,Wunderground v.1.13,2013-05-24 14:15:00,
2013-05-24 10:20:00,47.7,38.0,30.27,NNE,20,3.0,8.0,69,0.00,,,0.00,Wunderground v.1.13,2013-05-24 14:20:00,
2013-05-24 10:30:00,47.9,37.5,30.28,North,10,2.0,2.0,67,0.00,,,0.00,Wunderground v.1.13,2013-05-24 14:30:00,
2013-05-24 10:40:00,48.7,37.8,30.28,NW,321,2.0,6.0,66,0.00,,,0.00,Wunderground v.1.13,2013-05-24 14:40:00,
2013-05-24 10:50:00,49.7,39.6,30.28,NW,306,1.0,4.0,68,0.00,,,0.00,Wunderground v.1.13,2013-05-24 14:50:00,
2013-05-24 10:55:00,50.1,38.4,30.28,WNW,288,2.0,2.0,64,0.00,,,0.00,Wunderground v.1.13,2013-05-24 14:55:00,
2013-05-24 11:05:00,50.6,38.9,30.28,NE,51,3.0,3.0,64,0.00,,,0.00,Wunderground v.1.13,2013-05-24 15:05:00,
2013-05-24 11:15:00,51.3,37.9,30.28,NW,312,2.0,4.0,60,0.00,,,0.00,Wunderground v.1.13,2013-05-24 15:15:00,
2013-05-24 11:25:00,52.2,39.6,30.28,West,281,3.0,3.0,62,0.00,,,0.00,Wunderground v.1.13,2013-05-24 15:25:00,
2013-05-24 11:30:00,51.9,35.8,30.28,NW,323,4.0,5.0,54,0.00,,,0.00,Wunderground v.1.13,2013-05-24 15:30:00,
2013-05-24 11:40:00,52.2,37.4,30.29,WNW,300,3.0,5.0,57,0.00,,,0.00,Wunderground v.1.13,2013-05-24 15:40:00,
2013-05-24 11:50:00,51.5,36.3,30.29,WNW,283,3.0,3.0,56,0.00,,,0.00,Wunderground v.1.13,2013-05-24 15:50:00,
2013-05-24 12:00:00,51.4,38.8,30.29,North,5,3.0,3.0,62,0.00,,,0.00,Wunderground v.1.13,2013-05-24 16:00:00,
2013-05-24 12:10:00,51.4,37.1,30.29,WNW,298,3.0,8.0,58,0.00,,,0.00,Wunderground v.1.13,2013-05-24 16:10:00,
2013-05-24 12:15:00,51.7,37.4,30.29,West,279,5.0,5.0,58,0.00,,,0.00,Wunderground v.1.13,2013-05-24 16:15:00,
2013-05-24 12:25:00,51.5,37.6,30.30,North,9,5.0,5.0,59,0.00,,,0.00,Wunderground v.1.13,2013-05-24 16:25:00,
2013-05-24 12:35:00,51.5,38.5,30.30,WNW,291,4.0,5.0,61,0.00,,,0.00,Wunderground v.1.13,2013-05-24 16:35:00,
2013-05-24 12:45:00,52.4,38.5,30.29,WNW,289,5.0,5.0,59,0.00,,,0.00,Wunderground v.1.13,2013-05-24 16:45:00,
2013-05-24 12:55:00,53.7,39.7,30.29,North,5,4.0,4.0,59,0.00,,,0.00,Wunderground v.1.13,2013-05-24 16:55:00,
2013-05-24 13:00:00,54.3,38.9,30.29,West,272,2.0,5.0,56,0.00,,,0.00,Wunderground v.1.13,2013-05-24 17:00:00,
2013-05-24 13:10:00,53.3,38.9,30.30,NE,35,6.0,6.0,58,0.00,,,0.00,Wunderground v.1.13,2013-05-24 17:10:00,
2013-05-24 13:15:00,53.0,38.6,30.30,NNW,343,7.0,7.0,58,0.00,,,0.00,Wunderground v.1.13,2013-05-24 17:15:00,
2013-05-24 13:30:00,54.4,36.6,30.30,WNW,285,3.0,8.0,51,0.00,,,0.00,Wunderground v.1.13,2013-05-24 17:30:00,
2013-05-24 13:40:00,55.5,40.5,30.30,North,5,3.0,5.0,57,0.00,,,0.00,Wunderground v.1.13,2013-05-24 17:40:00,
2013-05-24 13:50:00,56.8,39.4,30.30,North,5,2.0,2.0,52,0.00,,,0.00,Wunderground v.1.13,2013-05-24 17:50:00,
2013-05-24 13:55:00,55.6,37.7,30.30,NW,306,5.0,5.0,51,0.00,,,0.00,Wunderground v.1.13,2013-05-24 17:55:00,
2013-05-24 14:05:00,54.1,36.4,30.30,WNW,283,6.0,6.0,51,0.00,,,0.00,Wunderground v.1.13,2013-05-24 18:05:00,
2013-05-24 14:15:00,54.1,39.2,30.31,WNW,294,6.0,12.0,57,0.00,,,0.00,Wunderground v.1.13,2013-05-24 18:15:00,
2013-05-24 14:25:00,54.7,37.9,30.30,West,261,5.0,6.0,53,0.00,,,0.00,Wunderground v.1.13,2013-05-24 18:25:00,
2013-05-24 14:30:00,55.3,38.9,30.30,NW,313,6.0,9.0,54,0.00,,,0.00,Wunderground v.1.13,2013-05-24 18:30:00,
2013-05-24 14:40:00,55.9,39.5,30.30,NNW,344,4.0,4.0,54,0.00,,,0.00,Wunderground v.1.13,2013-05-24 18:40:00,
2013-05-24 14:45:00,55.8,36.9,30.30,West,281,2.0,4.0,49,0.00,,,0.00,Wunderground v.1.13,2013-05-24 18:45:00,
2013-05-24 14:50:00,56.0,41.0,30.30,NE,41,3.0,3.0,57,0.00,,,0.00,Wunderground v.1.13,2013-05-24 18:50:00,
2013-05-24 15:00:00,55.9,36.5,30.30,WNW,302,5.0,5.0,48,0.00,,,0.00,Wunderground v.1.13,2013-05-24 19:00:00,
2013-05-24 15:05:00,55.7,39.3,30.30,NW,309,6.0,6.0,54,0.00,,,0.00,Wunderground v.1.13,2013-05-24 19:05:00,
2013-05-24 15:15:00,55.9,38.5,30.30,North,5,3.0,3.0,52,0.00,,,0.00,Wunderground v.1.13,2013-05-24 19:15:00,
2013-05-24 15:25:00,56.9,37.9,30.30,ESE,113,2.0,2.0,49,0.00,,,0.00,Wunderground v.1.13,2013-05-24 19:25:00,
2013-05-24 15:35:00,57.3,37.2,30.30,WNW,287,3.0,6.0,47,0.00,,,0.00,Wunderground v.1.13,2013-05-24 19:35:00,
2013-05-24 15:45:00,56.8,38.9,30.30,North,5,2.0,2.0,51,0.00,,,0.00,Wunderground v.1.13,2013-05-24 19:45:00,
2013-05-24 15:55:00,57.1,39.1,30.31,NNW,336,2.0,2.0,51,0.00,,,0.00,Wunderground v.1.13,2013-05-24 19:55:00,
2013-05-24 16:00:00,57.4,40.4,30.30,NNW,330,2.0,4.0,53,0.00,,,0.00,Wunderground v.1.13,2013-05-24 20:00:00,
2013-05-24 16:05:00,57.6,38.6,30.30,NNE,26,3.0,3.0,49,0.00,,,0.00,Wunderground v.1.13,2013-05-24 20:05:00,
2013-05-24 16:15:00,57.7,39.2,30.30,NNE,13,3.0,4.0,50,0.00,,,0.00,Wunderground v.1.13,2013-05-24 20:15:00,
2013-05-24 16:20:00,57.8,39.3,30.31,NW,317,4.0,7.0,50,0.00,,,0.00,Wunderground v.1.13,2013-05-24 20:20:00,
2013-05-24 16:30:00,57.6,39.1,30.31,NW,307,3.0,7.0,50,0.00,,,0.00,Wunderground v.1.13,2013-05-24 20:30:00,
2013-05-24 16:35:00,57.8,40.3,30.31,NNW,339,3.0,3.0,52,0.00,,,0.00,Wunderground v.1.13,2013-05-24 20:35:00,
2013-05-24 16:40:00,58.2,40.6,30.31,NNW,329,2.0,4.0,52,0.00,,,0.00,Wunderground v.1.13,2013-05-24 20:40:00,
2013-05-24 16:50:00,58.2,38.1,30.30,WNW,296,3.0,13.0,47,0.00,,,0.00,Wunderground v.1.13,2013-05-24 20:50:00,
2013-05-24 17:00:00,57.6,38.0,30.31,WNW,302,5.0,5.0,48,0.00,,,0.00,Wunderground v.1.13,2013-05-24 21:00:00,
2013-05-24 17:05:00,57.7,39.2,30.31,NNW,331,3.0,3.0,50,0.00,,,0.00,Wunderground v.1.13,2013-05-24 21:05:00,
2013-05-24 17:15:00,57.7,37.0,30.30,WNW,291,3.0,4.0,46,0.00,,,0.00,Wunderground v.1.13,2013-05-24 21:15:00,
2013-05-24 17:20:00,56.5,37.0,30.31,NW,312,6.0,6.0,48,0.00,,,0.00,Wunderground v.1.13,2013-05-24 21:20:00,
2013-05-24 17:30:00,56.8,38.3,30.31,NNE,30,3.0,3.0,50,0.00,,,0.00,Wunderground v.1.13,2013-05-24 21:30:00,
2013-05-24 17:35:00,57.1,37.6,30.31,WNW,286,4.0,11.0,48,0.00,,,0.00,Wunderground v.1.13,2013-05-24 21:35:00,
2013-05-24 17:45:00,56.7,38.3,30.31,NNW,332,5.0,5.0,50,0.00,,,0.00,Wunderground v.1.13,2013-05-24 21:45:00,
2013-05-24 17:50:00,57.3,40.8,30.32,NNW,339,2.0,2.0,54,0.00,,,0.00,Wunderground v.1.13,2013-05-24 21:50:00,
2013-05-24 18:00:00,57.5,39.5,30.32,WNW,298,2.0,2.0,51,0.00,,,0.00,Wunderground v.1.13,2013-05-24 22:00:00,
2013-05-24 18:10:00,57.5,37.9,30.31,NW,324,2.0,2.0,48,0.00,,,0.00,Wunderground v.1.13,2013-05-24 22:10:00,
2013-05-24 18:20:00,56.9,37.9,30.31,NE,43,3.0,4.0,49,0.00,,,0.00,Wunderground v.1.13,2013-05-24 22:20:00,
2013-05-24 18:30:00,57.0,37.5,30.31,WNW,298,2.0,2.0,48,0.00,,,0.00,Wunderground v.1.13,2013-05-24 22:30:00,
2013-05-24 18:35:00,57.1,39.1,30.31,NNW,331,1.0,1.0,51,0.00,,,0.00,Wunderground v.1.13,2013-05-24 22:35:00,
2013-05-24 18:45:00,57.2,38.7,30.30,NNE,27,1.0,1.0,50,0.00,,,0.00,Wunderground v.1.13,2013-05-24 22:45:00,
2013-05-24 18:50:00,57.1,39.1,30.31,West,271,1.0,1.0,51,0.00,,,0.00,Wunderground v.1.13,2013-05-24 22:50:00,
2013-05-24 19:00:00,57.1,38.1,30.30,West,281,1.0,1.0,49,0.00,,,0.00,Wunderground v.1.13,2013-05-24 23:00:00,
2013-05-24 19:10:00,57.0,40.0,30.30,NNW,347,1.0,1.0,53,0.00,,,0.00,Wunderground v.1.13,2013-05-24 23:10:00,
2013-05-24 19:20:00,57.1,39.1,30.30,North,360,1.0,2.0,51,0.00,,,0.00,Wunderground v.1.13,2013-05-24 23:20:00,
2013-05-24 19:30:00,56.9,38.9,30.30,WNW,293,1.0,1.0,51,0.00,,,0.00,Wunderground v.1.13,2013-05-24 23:30:00,
2013-05-24 19:40:00,56.7,39.3,30.30,WNW,296,0.0,0.0,52,0.00,,,0.00,Wunderground v.1.13,2013-05-24 23:40:00,
2013-05-24 19:50:00,56.0,38.6,30.30,NNW,338,1.0,1.0,52,0.00,,,0.00,Wunderground v.1.13,2013-05-24 23:50:00,
2013-05-24 19:55:00,55.7,39.3,30.31,NNW,338,0.0,0.0,54,0.00,,,0.00,Wunderground v.1.13,2013-05-24 23:55:00,
2013-05-24 20:05:00,55.1,38.7,30.31,NNW,329,0.0,0.0,54,0.00,,,0.00,Wunderground v.1.13,2013-05-25 00:05:00,
2013-05-24 20:15:00,53.7,39.3,30.31,North,360,0.0,0.0,58,0.00,,,0.00,Wunderground v.1.13,2013-05-25 00:15:00,
2013-05-24 20:25:00,52.8,39.7,30.31,North,360,0.0,0.0,61,0.00,,,0.00,Wunderground v.1.13,2013-05-25 00:25:00,
2013-05-24 20:35:00,52.1,39.9,30.31,North,360,0.0,0.0,63,0.00,,,0.00,Wunderground v.1.13,2013-05-25 00:35:00,
2013-05-24 20:45:00,51.2,39.4,30.30,North,5,0.0,0.0,64,0.00,,,0.00,Wunderground v.1.13,2013-05-25 00:45:00,
2013-05-24 20:55:00,50.3,39.8,30.30,North,5,0.0,0.0,67,0.00,,,0.00,Wunderground v.1.13,2013-05-25 00:55:00,
2013-05-24 21:00:00,50.0,39.5,30.30,North,5,0.0,0.0,67,0.00,,,0.00,Wunderground v.1.13,2013-05-25 01:00:00,
2013-05-24 21:10:00,49.4,39.3,30.30,North,5,0.0,0.0,68,0.00,,,0.00,Wunderground v.1.13,2013-05-25 01:10:00,
2013-05-24 21:20:00,49.0,39.6,30.30,North,5,0.0,0.0,70,0.00,,,0.00,Wunderground v.1.13,2013-05-25 01:20:00,
2013-05-24 21:30:00,48.5,39.5,30.30,North,5,0.0,0.0,71,0.00,,,0.00,Wunderground v.1.13,2013-05-25 01:30:00,
2013-05-24 21:40:00,48.1,39.1,30.30,North,5,0.0,0.0,71,0.00,,,0.00,Wunderground v.1.13,2013-05-25 01:40:00,
2013-05-24 21:50:00,47.7,39.1,30.30,North,5,0.0,0.0,72,0.00,,,0.00,Wunderground v.1.13,2013-05-25 01:50:00,
2013-05-24 22:00:00,47.3,39.1,30.31,North,5,0.0,0.0,73,0.00,,,0.00,Wunderground v.1.13,2013-05-25 02:00:00,
2013-05-24 22:05:00,47.1,38.9,30.31,North,5,0.0,0.0,73,0.00,,,0.00,Wunderground v.1.13,2013-05-25 02:05:00,
2013-05-24 22:15:00,46.7,38.1,30.31,North,5,0.0,0.0,72,0.00,,,0.00,Wunderground v.1.13,2013-05-25 02:15:00,
2013-05-24 22:25:00,46.4,38.6,30.32,North,5,0.0,0.0,74,0.00,,,0.00,Wunderground v.1.13,2013-05-25 02:25:00,
2013-05-24 22:35:00,46.0,38.2,30.33,North,5,0.0,0.0,74,0.00,,,0.00,Wunderground v.1.13,2013-05-25 02:35:00,
2013-05-24 22:45:00,45.8,38.3,30.33,North,5,0.0,0.0,75,0.00,,,0.00,Wunderground v.1.13,2013-05-25 02:45:00,
2013-05-24 22:55:00,45.5,38.4,30.34,North,5,0.0,0.0,76,0.00,,,0.00,Wunderground v.1.13,2013-05-25 02:55:00,
2013-05-24 23:00:00,45.3,38.2,30.34,North,5,0.0,0.0,76,0.00,,,0.00,Wunderground v.1.13,2013-05-25 03:00:00,
2013-05-24 23:05:00,45.1,38.3,30.34,North,5,0.0,0.0,77,0.00,,,0.00,Wunderground v.1.13,2013-05-25 03:05:00,
2013-05-24 23:15:00,44.7,37.9,30.34,North,5,0.0,0.0,77,0.00,,,0.00,Wunderground v.1.13,2013-05-25 03:15:00,
2013-05-24 23:25:00,44.5,38.7,30.35,North,5,0.0,0.0,80,0.00,,,0.00,Wunderground v.1.13,2013-05-25 03:25:00,
2013-05-24 23:35:00,44.3,38.8,30.35,North,5,0.0,0.0,81,0.00,,,0.00,Wunderground v.1.13,2013-05-25 03:35:00,
2013-05-24 23:45:00,44.1,38.6,30.35,North,5,0.0,0.0,81,0.00,,,0.00,Wunderground v.1.13,2013-05-25 03:45:00,
2013-05-24 23:55:00,43.9,38.4,30.35,North,5,0.0,0.0,81,0.00,,,0.00,Wunderground v.1.13,2013-05-25 03:55:00,